KRKS/RKS METAR and TAF weather

Enter ICAO airport designator
Station Type Date Time Source
KRKS METAR 2020/09/22 15:54 UTC NOAA

KRKS 221554Z AUTO 36007KT 10SM FEW110 14/M01 A3029 RMK AO2 SLP188 T01391006


Station Type Date Time Source
KRKS Decoded METAR 2020/09/22 15:54 UTC NOAA

ROCK SPRINGS-SWEETWATER CO, WY, United States (KRKS) 41-36N 109-03W
Sep 22, 2020 - 11:54 AM EDT / 2020.09.22 1554 UTC
Wind: from the N (360 degrees) at 8 MPH (7 KT):0
Visibility: 10 mile(s):0
Sky conditions: mostly clear
Temperature: 57.0 F (13.9 C)
Dew Point: 30.9 F (-0.6 C)
Relative Humidity: 36%
Pressure (altimeter): 30.29 in. Hg (1025 hPa)
ob: KRKS 221554Z AUTO 36007KT 10SM FEW110 14/M01 A3029 RMK AO2 SLP188 T01391006
cycle: 16

Station Type Date Time Source
KRKS TAF 2020/09/22 12:36 UTC NOAA

TAF KRKS 221134Z 2212/2312 VRB05KT P6SM SCT120
FM221600 23008KT P6SM SCT100 BKN150
FM221900 24012G25KT P6SM VCTS SCT080CB BKN120
FM230200 24006KT P6SM BKN100
FM230700 18007KT P6SM SKC

Example: see airport list